Time;durP1;ratioP1;P1;durP2;ratioP2;P2;SDS_P1;SDS_P2;PMS_P1;PMS_P2;Temp;Humidity;BMP_temperature;BMP_pressure;BME280_temperature;BME280_humidity;BME280_pressure;Samples;Min_cycle;Max_cycle;Signal;HPM_P1;HPM_P2
2022/11/13 00:01:10;;;;;;;6.70;6.00;;;;;;;8.51;78.25;96244.16;5139406;27;20259;-70
2022/11/13 00:03:37;;;;;;;7.00;6.30;;;;;;;8.58;78.45;96250.84;5139710;27;20202;-70
2022/11/13 00:06:05;;;;;;;6.55;5.95;;;;;;;8.68;78.03;96247.84;5139104;27;20191;-69
2022/11/13 00:08:32;;;;;;;6.70;6.10;;;;;;;8.71;78.00;96251.91;5139662;27;20207;-70
2022/11/13 00:11:04;;;;;;;6.20;5.60;;;;;;;8.78;77.66;96240.47;5138612;27;20202;-70
2022/11/13 00:13:32;;;;;;;5.35;4.85;;;;;;;8.82;77.83;96245.03;5139790;27;20190;-69
2022/11/13 00:16:00;;;;;;;5.15;4.65;;;;;;;8.80;77.64;96247.28;5139431;27;20596;-69
2022/11/13 00:18:28;;;;;;;6.18;4.50;;;;;;;8.81;77.92;96240.66;5138880;27;20582;-69
2022/11/13 00:20:55;;;;;;;4.75;4.35;;;;;;;8.82;77.79;96244.22;5138773;27;20203;-69
2022/11/13 00:23:23;;;;;;;5.10;4.68;;;;;;;8.86;77.72;96251.53;5138778;27;20195;-69
2022/11/13 00:25:50;;;;;;;5.22;4.72;;;;;;;8.88;77.50;96240.22;5138702;27;20191;-70
2022/11/13 00:28:17;;;;;;;6.18;5.50;;;;;;;8.84;77.47;96239.22;5139543;27;20244;-70
2022/11/13 00:30:44;;;;;;;6.50;5.90;;;;;;;8.81;77.64;96250.84;5138495;27;20206;-70
2022/11/13 00:33:11;;;;;;;6.25;5.65;;;;;;;8.79;77.77;96253.13;5139455;27;20187;-69
2022/11/13 00:35:38;;;;;;;6.05;5.53;;;;;;;8.81;77.69;96265.41;5139597;27;20203;-69
2022/11/13 00:38:05;;;;;;;6.15;5.65;;;;;;;8.83;77.75;96263.16;5139491;27;20209;-69
2022/11/13 00:40:33;;;;;;;6.60;5.90;;;;;;;8.86;77.78;96262.56;5138621;27;20194;-69
2022/11/13 00:43:00;;;;;;;5.80;5.30;;;;;;;8.90;77.61;96262.75;5138806;27;20243;-69
2022/11/13 00:45:26;;;;;;;5.85;5.35;;;;;;;8.93;77.71;96259.34;5139290;27;20179;-70
2022/11/13 00:47:53;;;;;;;6.07;5.57;;;;;;;8.89;77.92;96252.84;5138361;27;20251;-69
2022/11/13 00:50:20;;;;;;;6.68;6.03;;;;;;;8.89;77.59;96252.84;5139038;27;20214;-69
2022/11/13 00:52:47;;;;;;;6.50;5.93;;;;;;;8.87;77.57;96253.16;5137938;27;20679;-69
2022/11/13 00:55:14;;;;;;;8.18;6.25;;;;;;;8.84;77.86;96256.53;5138128;27;20215;-69
2022/11/13 00:57:42;;;;;;;6.95;6.35;;;;;;;8.87;77.66;96250.41;5139301;27;20195;-69
2022/11/13 01:00:11;;;;;;;7.60;6.75;;;;;;;8.89;77.61;96245.38;5138274;27;20211;-70
2022/11/13 01:02:37;;;;;;;8.20;6.90;;;;;;;8.94;77.75;96257.41;5138575;27;20595;-69
2022/11/13 01:05:05;;;;;;;6.38;5.82;;;;;;;8.99;77.53;96252.59;5137959;27;20194;-69
2022/11/13 01:07:31;;;;;;;6.28;5.68;;;;;;;9.07;77.31;96249.06;5138467;27;20252;-70
2022/11/13 01:09:58;;;;;;;6.15;5.65;;;;;;;9.13;76.89;96253.31;5138190;27;20203;-70
2022/11/13 01:12:25;;;;;;;6.25;5.70;;;;;;;9.14;76.64;96260.44;5138729;27;20183;-70
2022/11/13 01:14:53;;;;;;;6.97;6.38;;;;;;;9.12;76.74;96250.91;5137668;27;20215;-70
2022/11/13 01:17:20;;;;;;;7.35;6.65;;;;;;;9.08;76.94;96249.91;5138628;27;20187;-70
2022/11/13 01:19:47;;;;;;;6.95;6.35;;;;;;;9.07;76.79;96248.25;5138599;27;20188;-69
2022/11/13 01:22:14;;;;;;;6.93;5.95;;;;;;;9.03;77.13;96250.03;5138489;27;20244;-70
2022/11/13 01:24:41;;;;;;;7.30;6.28;;;;;;;9.03;77.26;96250.81;5138399;27;20179;-69
2022/11/13 01:27:07;;;;;;;6.53;5.93;;;;;;;9.06;77.30;96246.66;5137238;27;20207;-69
2022/11/13 01:29:34;;;;;;;7.38;6.22;;;;;;;9.09;77.11;96255.09;5138400;27;20187;-69
2022/11/13 01:32:02;;;;;;;6.50;5.80;;;;;;;9.11;77.07;96246.50;5138019;27;20187;-69
2022/11/13 01:34:29;;;;;;;6.80;6.20;;;;;;;9.04;77.19;96238.72;5137445;27;20219;-69
2022/11/13 01:36:56;;;;;;;7.45;6.80;;;;;;;8.97;77.25;96230.09;5137328;27;20191;-70
2022/11/13 01:39:23;;;;;;;6.95;6.30;;;;;;;8.89;77.61;96231.63;5138333;27;20611;-71
2022/11/13 01:41:49;;;;;;;7.55;6.85;;;;;;;8.87;77.79;96233.09;5137437;27;20291;-70
2022/11/13 01:44:18;;;;;;;6.63;6.03;;;;;;;8.84;78.04;96230.97;5137772;27;20684;-70
2022/11/13 01:46:45;;;;;;;7.03;6.43;;;;;;;8.87;77.96;96220.16;5137740;27;20184;-70
2022/11/13 01:49:27;;;;;;;7.22;6.53;;;;;;;8.85;77.70;96218.81;5137949;27;20207;-70
2022/11/13 01:51:56;;;;;;;6.40;5.90;;;;;;;8.89;77.98;96220.63;5120146;27;20199;-70
2022/11/13 01:54:26;;;;;;;6.82;6.18;;;;;;;8.93;77.68;96220.81;5137757;27;20211;-69
2022/11/13 01:56:53;;;;;;;6.68;6.18;;;;;;;8.91;77.48;96214.84;5137406;27;20183;-69
2022/11/13 01:59:22;;;;;;;6.20;5.60;;;;;;;8.95;77.62;96221.31;5136750;27;20202;-70
2022/11/13 02:01:49;;;;;;;6.60;6.00;;;;;;;8.89;77.73;96217.06;5136380;27;20190;-70
2022/11/13 02:04:17;;;;;;;6.72;6.13;;;;;;;8.88;77.74;96219.00;5137763;27;20198;-70
2022/11/13 02:06:46;;;;;;;6.72;6.22;;;;;;;8.86;77.73;96215.78;5137584;27;20184;-71
2022/11/13 02:09:14;;;;;;;6.50;6.00;;;;;;;8.90;77.60;96219.53;5137541;27;20187;-70
2022/11/13 02:11:41;;;;;;;6.85;6.22;;;;;;;8.89;77.67;96215.13;5137619;27;20198;-70
2022/11/13 02:14:09;;;;;;;7.25;6.55;;;;;;;8.97;77.33;96216.34;5136611;27;20210;-71
2022/11/13 02:16:37;;;;;;;6.72;6.13;;;;;;;8.99;77.38;96216.00;5137201;27;20179;-70
2022/11/13 02:19:08;;;;;;;6.78;6.22;;;;;;;8.96;77.24;96211.13;5136361;27;20208;-71
2022/11/13 02:21:41;;;;;;;7.00;6.40;;;;;;;8.94;77.37;96216.16;5136541;27;20190;-71
2022/11/13 02:24:21;;;;;;;6.60;6.00;;;;;;;8.90;77.57;96213.22;5136758;27;20203;-70
2022/11/13 02:26:50;;;;;;;7.00;6.40;;;;;;;8.94;77.58;96213.41;5137309;27;20195;-71
2022/11/13 02:29:16;;;;;;;6.75;6.05;;;;;;;8.92;77.57;96216.44;5137165;27;20208;-70
2022/11/13 02:31:43;;;;;;;6.93;6.32;;;;;;;8.90;77.46;96216.78;5137175;27;20179;-70
2022/11/13 02:34:10;;;;;;;7.13;6.43;;;;;;;8.91;77.14;96215.63;5137034;27;20187;-70
2022/11/13 02:36:37;;;;;;;7.00;6.35;;;;;;;8.89;77.44;96217.88;5137142;27;20175;-70
2022/11/13 02:39:06;;;;;;;6.15;5.65;;;;;;;8.90;77.44;96208.53;5136054;27;20199;-70
2022/11/13 02:41:34;;;;;;;6.68;6.07;;;;;;;8.91;77.50;96212.88;5135996;27;20226;-71
2022/11/13 02:44:01;;;;;;;6.28;5.68;;;;;;;8.93;77.54;96207.06;5135967;27;20199;-70
2022/11/13 02:46:28;;;;;;;6.43;5.93;;;;;;;8.88;77.38;96202.50;5135771;27;20198;-70
2022/11/13 02:48:55;;;;;;;6.47;5.95;;;;;;;8.91;77.62;96207.38;5135921;27;20199;-70
2022/11/13 02:51:22;;;;;;;6.30;5.70;;;;;;;8.92;77.57;96206.25;5137078;27;20198;-71
2022/11/13 02:53:48;;;;;;;6.80;6.20;;;;;;;8.96;77.48;96211.94;5136977;27;20247;-70
2022/11/13 02:56:15;;;;;;;6.63;5.95;;;;;;;8.99;77.06;96203.06;5135378;27;20218;-70
2022/11/13 02:58:44;;;;;;;6.50;5.90;;;;;;;9.01;77.22;96209.06;5135872;27;20195;-70
2022/11/13 03:01:11;;;;;;;6.13;5.55;;;;;;;8.99;77.46;96207.75;5136919;27;20507;-70
2022/11/13 03:03:38;;;;;;;6.60;6.00;;;;;;;9.04;77.34;96213.09;5136598;27;20186;-70
2022/11/13 03:06:05;;;;;;;6.40;5.82;;;;;;;9.06;77.31;96214.44;5135944;27;20191;-70
2022/11/13 03:08:32;;;;;;;6.50;5.93;;;;;;;9.11;77.13;96205.22;5135582;27;20210;-70
2022/11/13 03:10:59;;;;;;;6.65;6.05;;;;;;;9.15;76.83;96218.06;5135669;27;20210;-70
2022/11/13 03:13:25;;;;;;;6.97;6.28;;;;;;;9.18;76.85;96210.28;5136315;27;20191;-70
2022/11/13 03:15:53;;;;;;;6.88;6.28;;;;;;;9.20;76.74;96216.28;5136461;27;20199;-70
2022/11/13 03:18:21;;;;;;;7.72;6.93;;;;;;;9.23;76.64;96215.66;5136457;27;20191;-70
2022/11/13 03:20:52;;;;;;;7.38;6.68;;;;;;;9.26;76.25;96215.84;5135475;27;20232;-71
2022/11/13 03:23:19;;;;;;;8.07;7.28;;;;;;;9.29;76.21;96219.88;5135781;27;20198;-70
2022/11/13 03:25:46;;;;;;;7.90;7.20;;;;;;;9.29;76.00;96225.38;5135616;27;20207;-70
2022/11/13 03:28:12;;;;;;;8.02;7.22;;;;;;;9.28;76.26;96219.06;5135922;27;20244;-71
2022/11/13 03:30:39;;;;;;;7.38;6.68;;;;;;;9.29;76.12;96226.19;5136151;27;20190;-69
2022/11/13 03:33:07;;;;;;;7.63;6.93;;;;;;;9.29;76.17;96220.69;5135284;28;20199;-70
2022/11/13 03:35:34;;;;;;;7.78;7.07;;;;;;;9.29;76.33;96220.69;5136169;27;20207;-69
2022/11/13 03:38:01;;;;;;;7.63;6.88;;;;;;;9.24;76.30;96215.34;5135949;28;20195;-71
2022/11/13 03:40:28;;;;;;;7.30;6.60;;;;;;;9.18;76.68;96227.59;5135302;28;20202;-70
2022/11/13 03:42:55;;;;;;;7.72;7.05;;;;;;;9.18;76.41;96229.53;5135629;27;20241;-69
2022/11/13 03:45:23;;;;;;;7.53;6.63;;;;;;;9.16;76.92;96227.13;5135064;28;20203;-71
2022/11/13 03:47:50;;;;;;;7.85;7.15;;;;;;;9.14;76.67;96230.16;5135120;28;20195;-70
2022/11/13 03:50:19;;;;;;;8.18;6.85;;;;;;;9.09;76.83;96238.56;5135776;28;20202;-71
2022/11/13 03:52:45;;;;;;;7.38;6.78;;;;;;;9.13;77.18;96238.75;5135103;28;20206;-71
2022/11/13 03:55:12;;;;;;;7.55;6.80;;;;;;;9.20;76.96;96236.38;5135055;28;20215;-71
2022/11/13 03:57:39;;;;;;;7.40;6.70;;;;;;;9.26;76.65;96237.88;5135985;28;20175;-70
2022/11/13 04:00:06;;;;;;;7.28;6.57;;;;;;;9.34;76.34;96237.09;5136143;27;20195;-70
2022/11/13 04:02:34;;;;;;;7.35;6.75;;;;;;;9.38;76.36;96238.06;5136031;27;20188;-69
2022/11/13 04:05:01;;;;;;;7.63;6.93;;;;;;;9.45;75.88;96240.38;5135848;28;20187;-70
2022/11/13 04:07:29;;;;;;;7.55;6.85;;;;;;;9.49;75.67;96235.06;5135541;28;20187;-70
2022/11/13 04:09:56;;;;;;;7.57;6.85;;;;;;;9.46;75.82;96232.94;5135829;28;20184;-70
2022/11/13 04:12:22;;;;;;;8.10;7.40;;;;;;;9.46;75.62;96230.97;5134704;28;20202;-70
2022/11/13 04:14:49;;;;;;;7.72;7.07;;;;;;;9.48;75.70;96234.25;5135723;28;20240;-70
2022/11/13 04:17:17;;;;;;;7.70;6.93;;;;;;;9.44;75.97;96225.00;5135760;28;20195;-69
2022/11/13 04:19:43;;;;;;;7.43;6.72;;;;;;;9.42;75.95;96218.16;5134830;28;20203;-69
2022/11/13 04:22:10;;;;;;;7.30;6.65;;;;;;;9.45;75.95;96217.53;5135002;28;20202;-69
2022/11/13 04:24:38;;;;;;;7.75;7.05;;;;;;;9.47;75.96;96223.53;5137476;27;20180;-70
2022/11/13 04:27:05;;;;;;;7.72;7.03;;;;;;;9.44;76.00;96216.75;5139254;27;20187;-70
2022/11/13 04:29:32;;;;;;;8.23;7.53;;;;;;;9.39;76.43;96225.13;5139595;27;20191;-70
2022/11/13 04:31:59;;;;;;;7.97;7.22;;;;;;;9.44;76.38;96229.66;5138634;27;20206;-70
2022/11/13 04:34:25;;;;;;;7.57;6.88;;;;;;;9.43;76.42;96231.59;5139275;27;20187;-70
2022/11/13 04:36:52;;;;;;;8.05;7.30;;;;;;;9.44;76.30;96232.41;5138430;27;20222;-69
2022/11/13 04:39:19;;;;;;;8.50;7.60;;;;;;;9.40;76.50;96227.56;5139197;27;20638;-69
2022/11/13 04:44:32;;;;;;;8.20;7.50;;;;;;;9.35;76.75;96229.63;5139175;27;20175;-70
2022/11/13 04:46:58;;;;;;;8.63;7.82;;;;;;;9.37;76.94;96225.44;5138900;27;20176;-70
2022/11/13 04:49:25;;;;;;;8.32;7.63;;;;;;;9.38;76.88;96227.06;5139203;27;20194;-71
2022/11/13 04:51:52;;;;;;;9.18;8.27;;;;;;;9.37;76.81;96233.72;5139347;27;20260;-72
2022/11/13 04:54:19;;;;;;;9.00;8.20;;;;;;;9.37;76.85;96222.69;5138280;27;20547;-70
2022/11/13 04:56:48;;;;;;;8.95;8.05;;;;;;;9.45;76.70;96234.06;5137674;27;20229;-70
2022/11/13 04:59:15;;;;;;;9.40;8.50;;;;;;;9.43;76.69;96228.84;5138664;27;20182;-70
2022/11/13 05:01:42;;;;;;;10.02;9.10;;;;;;;9.44;76.57;96238.75;5138519;27;20222;-70
2022/11/13 05:04:11;;;;;;;10.15;9.25;;;;;;;9.49;76.43;96238.63;5137995;27;20210;-70
2022/11/13 05:06:38;;;;;;;11.25;10.15;;;;;;;9.50;76.42;96234.72;5139002;27;20191;-70
2022/11/13 05:09:04;;;;;;;11.82;10.65;;;;;;;9.47;76.12;96229.03;5138796;27;20194;-71
2022/11/13 05:11:31;;;;;;;11.60;10.40;;;;;;;9.45;76.25;96231.31;5137993;27;20202;-70
2022/11/13 05:13:59;;;;;;;12.43;11.32;;;;;;;9.48;76.06;96233.44;5138470;27;20195;-71
2022/11/13 05:16:26;;;;;;;12.15;10.95;;;;;;;9.52;76.05;96237.19;5138693;27;20210;-70
2022/11/13 05:18:53;;;;;;;12.65;11.43;;;;;;;9.56;75.75;96238.97;5137309;27;20199;-70
2022/11/13 05:21:20;;;;;;;12.05;10.88;;;;;;;9.58;75.79;96244.16;5137930;27;20201;-70
2022/11/13 05:23:47;;;;;;;12.55;11.30;;;;;;;9.57;75.51;96239.78;5138047;27;20539;-71
2022/11/13 05:26:14;;;;;;;12.38;11.18;;;;;;;9.48;76.08;96238.94;5137439;27;20244;-70
2022/11/13 05:28:40;;;;;;;13.02;11.73;;;;;;;9.50;76.16;96242.19;5137507;27;20259;-72
2022/11/13 05:31:10;;;;;;;12.68;11.35;;;;;;;9.50;76.27;96247.69;5137442;27;20198;-71
2022/11/13 05:33:38;;;;;;;13.23;11.90;;;;;;;9.48;76.28;96248.00;5137634;27;20631;-71
2022/11/13 05:36:06;;;;;;;13.13;11.93;;;;;;;9.51;76.21;96252.06;5137530;27;20214;-70
2022/11/13 05:38:33;;;;;;;14.02;12.73;;;;;;;9.54;76.01;96245.91;5137438;27;20199;-70
2022/11/13 05:41:04;;;;;;;14.02;12.63;;;;;;;9.55;76.09;96251.13;5136902;27;20546;-70
2022/11/13 05:43:31;;;;;;;12.68;11.30;;;;;;;9.51;75.96;96260.31;5136823;27;20233;-70
2022/11/13 05:46:02;;;;;;;14.52;12.77;;;;;;;9.51;76.10;96258.38;5137049;27;20199;-72
2022/11/13 05:48:31;;;;;;;12.88;11.60;;;;;;;9.62;75.98;96251.47;5137048;27;20191;-72
2022/11/13 05:51:02;;;;;;;13.10;11.88;;;;;;;9.75;75.87;96255.25;5137078;27;20191;-71
2022/11/13 05:53:30;;;;;;;12.80;11.50;;;;;;;9.83;75.73;96250.88;5137858;27;20186;-72
2022/11/13 05:56:00;;;;;;;12.43;11.23;;;;;;;9.91;75.11;96263.06;5137584;27;20691;-70
2022/11/13 05:58:27;;;;;;;12.13;10.98;;;;;;;9.94;75.02;96259.66;5137056;27;20199;-70
2022/11/13 06:00:54;;;;;;;12.10;10.90;;;;;;;10.00;74.43;96264.72;5138025;27;20191;-71
2022/11/13 06:03:21;;;;;;;13.45;11.95;;;;;;;9.99;74.00;96270.56;5136818;27;20206;-71
2022/11/13 06:05:49;;;;;;;14.05;12.68;;;;;;;9.99;74.06;96265.88;5136475;27;20224;-70
2022/11/13 06:08:19;;;;;;;13.27;12.07;;;;;;;10.04;73.90;96273.16;5137733;27;20198;-70
2022/11/13 06:10:46;;;;;;;12.85;11.60;;;;;;;10.05;73.30;96269.25;5136975;27;20251;-70
2022/11/13 06:13:12;;;;;;;12.55;11.25;;;;;;;10.10;73.25;96272.69;5137306;27;20651;-70
2022/11/13 06:15:39;;;;;;;13.27;11.48;;;;;;;10.07;72.99;96273.34;5136956;27;20214;-70
2022/11/13 06:18:06;;;;;;;13.27;11.98;;;;;;;10.08;73.19;96274.94;5137235;27;20183;-71
2022/11/13 06:20:34;;;;;;;13.98;12.50;;;;;;;10.06;73.09;96268.97;5137047;27;20634;-71
2022/11/13 06:23:02;;;;;;;14.57;13.02;;;;;;;10.03;72.78;96269.59;5137010;27;20198;-71
2022/11/13 06:25:30;;;;;;;14.05;12.50;;;;;;;9.97;72.96;96267.31;5136631;27;20617;-71
2022/11/13 06:27:56;;;;;;;13.73;12.27;;;;;;;9.95;73.07;96269.56;5137265;27;20191;-70
2022/11/13 06:30:23;;;;;;;13.38;12.07;;;;;;;9.92;73.15;96278.50;5137275;27;20199;-70
2022/11/13 06:32:53;;;;;;;14.60;13.10;;;;;;;9.84;73.06;96280.91;5136149;27;20199;-71
2022/11/13 06:35:20;;;;;;;13.63;12.25;;;;;;;9.83;73.49;96281.19;5136463;27;20399;-70
2022/11/13 06:37:46;;;;;;;13.27;11.88;;;;;;;9.82;72.85;96280.38;5137105;27;20183;-71
2022/11/13 06:40:15;;;;;;;14.50;13.07;;;;;;;9.83;73.07;96276.50;5136409;27;20195;-72
2022/11/13 06:42:42;;;;;;;13.20;12.00;;;;;;;9.85;73.05;96278.94;5136297;27;20227;-71
2022/11/13 06:45:09;;;;;;;12.75;11.55;;;;;;;9.85;73.00;96279.75;5136239;27;20224;-70
2022/11/13 06:47:36;;;;;;;13.68;12.38;;;;;;;9.95;72.90;96280.56;5136395;27;20211;-71
2022/11/13 06:50:03;;;;;;;13.15;11.77;;;;;;;9.93;72.74;96271.84;5135935;27;20183;-71
2022/11/13 06:52:30;;;;;;;13.07;11.85;;;;;;;9.92;72.78;96270.22;5136349;27;20271;-71
2022/11/13 06:54:58;;;;;;;14.38;12.88;;;;;;;9.94;72.54;96278.97;5136708;27;20213;-71
2022/11/13 06:57:27;;;;;;;14.20;12.70;;;;;;;9.97;72.57;96279.13;5136202;27;20211;-71
2022/11/13 06:59:53;;;;;;;14.18;12.52;;;;;;;9.94;72.65;96276.22;5136690;27;20288;-71
2022/11/13 07:02:21;;;;;;;13.73;12.13;;;;;;;9.91;72.45;96266.63;5136719;27;20194;-70
2022/11/13 07:04:48;;;;;;;14.32;12.80;;;;;;;9.91;72.64;96277.66;5135887;27;20190;-73
2022/11/13 07:07:15;;;;;;;13.02;11.82;;;;;;;9.88;72.57;96278.31;5136736;27;20197;-71
2022/11/13 07:09:42;;;;;;;13.27;12.00;;;;;;;9.95;72.33;96281.41;5135523;27;20423;-71
2022/11/13 07:12:08;;;;;;;12.30;11.07;;;;;;;9.93;72.23;96277.34;5135974;27;20198;-71
2022/11/13 07:14:37;;;;;;;12.75;11.45;;;;;;;9.90;72.41;96278.78;5135662;27;20192;-71
2022/11/13 07:17:03;;;;;;;12.85;11.50;;;;;;;9.92;72.15;96281.25;5136394;27;20214;-71
2022/11/13 07:19:30;;;;;;;13.15;11.75;;;;;;;9.91;72.32;96288.69;5136999;27;20187;-71
2022/11/13 07:21:57;;;;;;;13.57;12.25;;;;;;;9.90;72.18;96281.53;5136495;27;20187;-71
2022/11/13 07:24:24;;;;;;;13.25;11.27;;;;;;;9.88;72.35;96283.81;5136393;27;20197;-71
2022/11/13 07:26:51;;;;;;;14.45;12.95;;;;;;;9.92;71.97;96282.06;5135428;27;20535;-71
2022/11/13 07:29:18;;;;;;;12.60;11.30;;;;;;;9.94;71.90;96281.72;5136432;27;20183;-71
2022/11/13 07:31:47;;;;;;;12.85;11.55;;;;;;;9.95;71.75;96273.16;5136364;27;20206;-71
2022/11/13 07:34:15;;;;;;;13.10;11.80;;;;;;;9.94;71.64;96271.50;5136327;27;20194;-71
2022/11/13 07:36:43;;;;;;;13.27;11.82;;;;;;;10.01;71.74;96282.88;5135995;27;20199;-71
2022/11/13 07:39:10;;;;;;;13.88;12.27;;;;;;;10.07;71.53;96273.34;5136243;27;20192;-71
2022/11/13 07:41:37;;;;;;;13.57;11.63;;;;;;;10.07;71.35;96281.59;5135724;27;20535;-71
2022/11/13 07:44:05;;;;;;;13.32;11.93;;;;;;;10.04;71.07;96287.75;5135573;28;20195;-71
2022/11/13 07:46:31;;;;;;;14.23;12.73;;;;;;;10.07;71.29;96281.59;5135398;28;20187;-71
2022/11/13 07:49:00;;;;;;;14.10;12.70;;;;;;;10.05;71.27;96291.31;5134784;28;20202;-71
2022/11/13 07:51:27;;;;;;;15.38;13.10;;;;;;;10.04;71.39;96293.25;5136071;27;20210;-71
2022/11/13 07:53:54;;;;;;;13.77;12.38;;;;;;;10.07;71.54;96287.13;5136092;27;20191;-71
2022/11/13 07:56:24;;;;;;;13.18;11.75;;;;;;;10.10;70.98;96283.72;5135024;28;20561;-70
2022/11/13 07:58:51;;;;;;;12.65;11.40;;;;;;;10.11;70.79;96293.63;5137541;27;20259;-70
2022/11/13 08:01:18;;;;;;;12.98;11.50;;;;;;;10.08;70.82;96288.72;5140325;27;20203;-70
2022/11/13 08:03:45;;;;;;;12.05;10.85;;;;;;;10.08;71.30;96287.94;5140162;27;20573;-71
2022/11/13 08:06:14;;;;;;;14.23;11.65;;;;;;;10.11;70.96;96282.59;5139192;27;20202;-71
2022/11/13 08:08:40;;;;;;;14.35;12.85;;;;;;;10.16;71.15;96286.31;5139997;27;20191;-71
2022/11/13 08:11:08;;;;;;;14.88;12.40;;;;;;;10.21;70.61;96286.19;5139016;27;20191;-71
2022/11/13 08:13:36;;;;;;;13.38;11.98;;;;;;;10.21;70.42;96287.00;5139747;27;20182;-71
2022/11/13 08:16:04;;;;;;;13.50;12.10;;;;;;;10.26;70.47;96286.06;5139675;27;20187;-71
2022/11/13 08:18:31;;;;;;;12.73;11.40;;;;;;;10.26;70.16;96283.31;5140012;27;20190;-71
2022/11/13 08:21:02;;;;;;;14.70;12.30;;;;;;;10.30;70.12;96282.31;5138840;27;20511;-71
2022/11/13 08:23:30;;;;;;;13.63;12.23;;;;;;;10.32;69.82;96276.50;5139471;27;20665;-71
2022/11/13 08:25:58;;;;;;;14.02;12.55;;;;;;;10.35;69.91;96278.63;5138850;27;20195;-71
2022/11/13 08:28:26;;;;;;;13.88;12.48;;;;;;;10.34;70.13;96279.75;5139729;27;20194;-70
2022/11/13 08:30:53;;;;;;;13.48;12.07;;;;;;;10.32;69.96;96280.06;5138718;27;20194;-71
2022/11/13 08:33:20;;;;;;;13.38;12.07;;;;;;;10.36;70.06;96286.56;5139842;27;20194;-71
2022/11/13 08:35:53;;;;;;;13.10;11.75;;;;;;;10.36;69.09;96288.50;5138622;27;20256;-71
2022/11/13 08:38:20;;;;;;;14.13;12.18;;;;;;;10.39;69.41;96278.78;5121826;27;20228;-70
2022/11/13 08:40:48;;;;;;;13.48;12.18;;;;;;;10.37;69.22;96290.13;5138602;27;20199;-70
2022/11/13 08:43:16;;;;;;;13.70;12.30;;;;;;;10.41;69.24;96293.88;5138929;27;20227;-70
2022/11/13 08:45:42;;;;;;;13.93;12.45;;;;;;;10.41;69.05;96296.63;5139323;27;20191;-70
2022/11/13 08:48:09;;;;;;;15.20;13.40;;;;;;;10.42;69.44;96297.44;5138937;27;20199;-71
2022/11/13 08:50:37;;;;;;;14.48;13.07;;;;;;;10.41;69.03;96296.63;5139270;27;20183;-70
2022/11/13 08:53:03;;;;;;;13.90;12.50;;;;;;;10.43;69.31;96299.88;5138925;27;20248;-71
2022/11/13 08:55:30;;;;;;;14.27;12.77;;;;;;;10.48;69.27;96305.25;5138292;27;20206;-71
2022/11/13 08:58:00;;;;;;;14.68;13.18;;;;;;;10.55;69.18;96302.81;5139204;27;20198;-70
2022/11/13 09:00:27;;;;;;;14.38;13.00;;;;;;;10.54;68.50;96306.72;5138331;27;20210;-71
2022/11/13 09:02:55;;;;;;;14.55;13.05;;;;;;;10.53;68.78;96302.34;5139076;27;20255;-71
2022/11/13 09:05:21;;;;;;;13.60;12.27;;;;;;;10.51;69.00;96301.84;5139162;27;20198;-71
2022/11/13 09:07:48;;;;;;;14.82;13.30;;;;;;;10.50;68.80;96302.16;5138624;27;20183;-71
2022/11/13 09:10:16;;;;;;;15.07;13.57;;;;;;;10.50;69.26;96299.41;5137928;27;20196;-71
2022/11/13 09:12:43;;;;;;;14.48;12.75;;;;;;;10.52;68.89;96297.94;5138946;27;20184;-71
2022/11/13 09:15:12;;;;;;;14.80;13.25;;;;;;;10.49;68.86;96304.09;5137447;27;20187;-71
2022/11/13 09:17:39;;;;;;;15.25;13.75;;;;;;;10.56;69.03;96309.94;5138875;27;20218;-72
2022/11/13 09:20:07;;;;;;;14.23;12.60;;;;;;;10.67;69.38;96304.94;5138903;27;20195;-71
2022/11/13 09:22:36;;;;;;;13.82;12.50;;;;;;;10.85;68.96;96298.28;5137877;27;20206;-71
2022/11/13 09:25:03;;;;;;;14.60;13.07;;;;;;;11.00;68.84;96294.25;5137291;27;20191;-70
2022/11/13 09:27:30;;;;;;;13.80;12.20;;;;;;;11.14;68.40;96299.56;5138350;27;20629;-71
2022/11/13 09:29:57;;;;;;;13.90;12.45;;;;;;;11.22;67.56;96301.53;5138216;27;20198;-70
2022/11/13 09:32:25;;;;;;;14.88;13.30;;;;;;;11.31;67.62;96295.97;5137560;27;20608;-70
2022/11/13 09:34:52;;;;;;;14.15;12.75;;;;;;;11.37;67.63;96291.91;5138329;27;20189;-70
2022/11/13 09:37:19;;;;;;;15.15;13.55;;;;;;;11.39;67.93;96289.63;5137623;27;20207;-70
2022/11/13 09:39:46;;;;;;;14.95;13.43;;;;;;;11.42;68.19;96288.16;5137494;27;20206;-70
2022/11/13 09:42:17;;;;;;;15.80;14.13;;;;;;;11.40;67.35;96282.13;5137333;27;20230;-70
2022/11/13 09:44:47;;;;;;;15.93;14.38;;;;;;;11.23;67.10;96281.06;5138285;27;20187;-70
2022/11/13 09:47:18;;;;;;;14.20;12.77;;;;;;;11.11;67.54;96280.91;5137565;27;20202;-71
2022/11/13 09:49:50;;;;;;;17.52;15.70;;;;;;;11.02;68.13;96275.38;5136773;27;20626;-71
2022/11/13 09:52:19;;;;;;;14.82;13.30;;;;;;;10.97;68.13;96277.53;5138137;27;20573;-71
2022/11/13 09:54:46;;;;;;;14.30;12.90;;;;;;;10.93;67.21;96273.75;5137508;27;20191;-71
2022/11/13 09:57:21;;;;;;;14.00;12.50;;;;;;;10.90;68.21;96277.19;5137882;27;20228;-70
2022/11/13 09:59:52;;;;;;;14.25;12.90;;;;;;;10.80;68.71;96270.03;5136331;27;20199;-70
2022/11/13 10:02:23;;;;;;;15.57;14.00;;;;;;;10.71;69.01;96271.97;5137033;27;20198;-71
2022/11/13 10:04:58;;;;;;;15.35;13.88;;;;;;;10.60;69.34;96275.09;5137781;27;20209;-71
2022/11/13 10:07:33;;;;;;;15.70;14.20;;;;;;;10.60;69.51;96269.56;5136802;27;20729;-71
2022/11/13 10:10:17;;;;;;;14.20;12.85;;;;;;;10.64;69.55;96271.66;5137205;27;20191;-71
2022/11/13 10:12:45;;;;;;;14.95;13.27;;;;;;;10.54;69.25;96270.84;5137301;27;20201;-71
2022/11/13 10:15:12;;;;;;;14.55;13.05;;;;;;;10.43;69.29;96268.75;5137703;27;20176;-72
2022/11/13 10:17:41;;;;;;;14.85;13.43;;;;;;;10.41;69.63;96262.72;5136823;27;20210;-72
2022/11/13 10:20:14;;;;;;;17.73;16.02;;;;;;;10.41;70.10;96255.25;5136159;27;20516;-72
2022/11/13 10:22:45;;;;;;;17.23;15.48;;;;;;;10.44;70.39;96262.09;5135513;27;20203;-72
2022/11/13 10:25:19;;;;;;;17.35;15.52;;;;;;;10.50;69.94;96261.59;5137093;27;20187;-72
2022/11/13 10:27:49;;;;;;;14.13;12.82;;;;;;;10.57;69.51;96258.38;5136568;27;20213;-72
2022/11/13 10:33:38;;;;;;;14.80;13.30;;;;;;;10.47;68.50;96253.16;5137267;27;20187;-72
2022/11/13 10:36:15;;;;;;;14.93;13.52;;;;;;;10.48;68.75;96252.03;5135988;27;20187;-72
2022/11/13 10:38:48;;;;;;;15.68;13.95;;;;;;;10.53;68.79;96255.44;5137110;27;20210;-72
2022/11/13 10:41:17;;;;;;;14.98;13.45;;;;;;;10.57;68.44;96250.09;5136907;27;20198;-72
2022/11/13 10:43:52;;;;;;;14.48;12.45;;;;;;;10.57;68.46;96250.91;5136747;27;20223;-72
2022/11/13 10:46:20;;;;;;;14.27;12.88;;;;;;;10.59;68.74;96251.38;5136892;27;20217;-72
2022/11/13 10:48:47;;;;;;;13.93;12.50;;;;;;;10.57;68.63;96242.63;5136589;27;20179;-72
2022/11/13 10:51:27;;;;;;;15.15;13.55;;;;;;;10.63;68.97;96237.75;5136886;27;20183;-72
2022/11/13 10:53:54;;;;;;;14.32;12.93;;;;;;;10.67;68.60;96237.91;5136389;27;20206;-72
2022/11/13 10:56:26;;;;;;;14.63;13.23;;;;;;;10.71;68.20;96242.47;5135879;27;20250;-71
2022/11/13 10:59:01;;;;;;;15.63;13.85;;;;;;;10.78;68.71;96234.50;5136728;27;20221;-71
2022/11/13 11:01:28;;;;;;;15.63;14.07;;;;;;;10.84;68.19;96230.44;5135763;27;20233;-71
2022/11/13 11:03:55;;;;;;;15.23;13.48;;;;;;;10.87;68.26;96234.50;5136821;27;20187;-72
2022/11/13 11:06:33;;;;;;;15.20;13.70;;;;;;;10.88;68.21;96236.09;5136651;27;20180;-73
2022/11/13 11:09:08;;;;;;;15.10;13.60;;;;;;;10.90;67.23;96230.28;5135688;27;20191;-72
2022/11/13 11:14:24;;;;;;;17.08;15.27;;;;;;;10.91;68.02;96218.91;5135704;27;20552;-72
2022/11/13 11:16:53;;;;;;;17.13;15.32;;;;;;;10.93;68.07;96222.16;5136427;27;20190;-72
2022/11/13 11:19:23;;;;;;;18.65;16.60;;;;;;;10.95;67.89;96216.28;5136414;27;20267;-72
2022/11/13 11:21:54;;;;;;;16.60;14.85;;;;;;;10.86;67.12;96216.31;5136431;27;20193;-72
2022/11/13 11:24:24;;;;;;;16.42;14.73;;;;;;;10.82;67.33;96209.81;5135545;27;20195;-72
2022/11/13 11:26:57;;;;;;;15.90;14.30;;;;;;;10.78;67.25;96209.69;5135338;27;20198;-72
2022/11/13 11:29:28;;;;;;;15.27;13.88;;;;;;;10.73;67.64;96211.78;5136014;27;20187;-72
2022/11/13 11:31:59;;;;;;;15.23;13.82;;;;;;;10.74;67.55;96214.19;5135374;27;20191;-72
2022/11/13 11:34:31;;;;;;;14.82;13.38;;;;;;;10.67;67.45;96208.34;5136352;27;20199;-72
2022/11/13 11:37:06;;;;;;;15.80;14.23;;;;;;;10.70;67.86;96209.66;5135205;28;20545;-72
2022/11/13 11:39:37;;;;;;;15.90;14.23;;;;;;;10.65;67.74;96207.09;5135695;28;20194;-73
2022/11/13 11:42:13;;;;;;;16.58;14.90;;;;;;;10.69;68.26;96211.63;5135032;28;20231;-73